KOPL/OPL METAR and TAF weather

Enter ICAO airport designator
Station Type Date Time Source
KOPL METAR 2018/12/15 01:55 UTC NOAA

KOPL 150155Z AUTO 26009G16KT 5SM BR OVC007 09/08 A2991 RMK AO2 T00860080


Station Type Date Time Source
KOPL Decoded METAR 2018/12/15 01:55 UTC NOAA

Station name not available
Dec 14, 2018 - 08:55 PM EST / 2018.12.15 0155 UTC
Wind: from the W (260 degrees) at 10 MPH (9 KT) gusting to 18 MPH (16 KT):0
Visibility: 5 mile(s):0
Sky conditions: overcast
Weather: mist
Temperature: 47.5 F (8.6 C)
Dew Point: 46.4 F (8.0 C)
Relative Humidity: 96%
Pressure (altimeter): 29.91 in. Hg (1012 hPa)
ob: KOPL 150155Z AUTO 26009G16KT 5SM BR OVC007 09/08 A2991 RMK AO2 T00860080
cycle: 2

Station Type Date Time Source
KOPL TAF UTC NOAA

Error!


Example: see airport list